sensor_id;sensor_type;location;lat;lon;timestamp;temperature;humidity
50544;DHT22;41176;44.032;20.900;2023-08-30T00:00:15;20.50;99.90
50544;DHT22;41176;44.032;20.900;2023-08-30T00:02:43;20.50;99.90
50544;DHT22;41176;44.032;20.900;2023-08-30T00:05:10;20.50;99.90
50544;DHT22;41176;44.032;20.900;2023-08-30T00:07:35;20.40;99.90
50544;DHT22;41176;44.032;20.900;2023-08-30T00:10:01;20.40;99.90
50544;DHT22;41176;44.032;20.900;2023-08-30T00:12:27;20.50;99.90
50544;DHT22;41176;44.032;20.900;2023-08-30T00:14:53;20.50;99.90
50544;DHT22;41176;44.032;20.900;2023-08-30T00:17:19;20.40;99.90
50544;DHT22;41176;44.032;20.900;2023-08-30T00:19:45;20.30;99.90
50544;DHT22;41176;44.032;20.900;2023-08-30T00:22:11;20.30;99.90
50544;DHT22;41176;44.032;20.900;2023-08-30T00:24:38;20.40;99.90
50544;DHT22;41176;44.032;20.900;2023-08-30T00:27:04;20.30;99.90
50544;DHT22;41176;44.032;20.900;2023-08-30T00:29:30;20.30;99.90
50544;DHT22;41176;44.032;20.900;2023-08-30T00:31:56;20.40;99.90
50544;DHT22;41176;44.032;20.900;2023-08-30T00:34:22;20.50;99.90
50544;DHT22;41176;44.032;20.900;2023-08-30T00:36:48;20.50;99.90
50544;DHT22;41176;44.032;20.900;2023-08-30T00:39:13;20.40;99.90
50544;DHT22;41176;44.032;20.900;2023-08-30T00:41:40;20.30;99.90
50544;DHT22;41176;44.032;20.900;2023-08-30T00:44:05;20.20;99.90
50544;DHT22;41176;44.032;20.900;2023-08-30T00:46:32;20.20;99.90
50544;DHT22;41176;44.032;20.900;2023-08-30T00:48:59;20.20;99.90
50544;DHT22;41176;44.032;20.900;2023-08-30T00:51:26;20.10;99.90
50544;DHT22;41176;44.032;20.900;2023-08-30T00:53:54;20.10;99.90
50544;DHT22;41176;44.032;20.900;2023-08-30T00:56:21;20.10;99.90
50544;DHT22;41176;44.032;20.900;2023-08-30T00:58:48;20.00;99.90
50544;DHT22;41176;44.032;20.900;2023-08-30T01:01:15;20.00;99.90
50544;DHT22;41176;44.032;20.900;2023-08-30T01:03:41;20.10;99.90
50544;DHT22;41176;44.032;20.900;2023-08-30T01:06:07;20.00;99.90
50544;DHT22;41176;44.032;20.900;2023-08-30T01:08:35;20.00;99.90
50544;DHT22;41176;44.032;20.900;2023-08-30T01:11:22;20.10;99.90
50544;DHT22;41176;44.032;20.900;2023-08-30T01:14:03;20.00;99.90
50544;DHT22;41176;44.032;20.900;2023-08-30T01:16:30;20.10;99.90
50544;DHT22;41176;44.032;20.900;2023-08-30T01:18:58;20.10;99.90
50544;DHT22;41176;44.032;20.900;2023-08-30T01:24:04;20.10;99.90
50544;DHT22;41176;44.032;20.900;2023-08-30T01:29:25;20.20;99.90
50544;DHT22;41176;44.032;20.900;2023-08-30T01:31:52;20.30;99.90
50544;DHT22;41176;44.032;20.900;2023-08-30T01:34:18;20.30;99.90
50544;DHT22;41176;44.032;20.900;2023-08-30T01:36:45;20.30;99.90
50544;DHT22;41176;44.032;20.900;2023-08-30T01:39:11;20.30;99.90
50544;DHT22;41176;44.032;20.900;2023-08-30T01:41:38;20.30;99.90
50544;DHT22;41176;44.032;20.900;2023-08-30T01:44:06;20.40;99.90
50544;DHT22;41176;44.032;20.900;2023-08-30T01:46:33;20.20;99.90
50544;DHT22;41176;44.032;20.900;2023-08-30T01:49:02;20.00;99.90
50544;DHT22;41176;44.032;20.900;2023-08-30T01:51:28;20.00;99.90
50544;DHT22;41176;44.032;20.900;2023-08-30T01:53:55;20.00;99.90
50544;DHT22;41176;44.032;20.900;2023-08-30T01:56:21;20.00;99.90
50544;DHT22;41176;44.032;20.900;2023-08-30T01:58:47;20.00;99.90
50544;DHT22;41176;44.032;20.900;2023-08-30T02:01:13;19.90;99.90
50544;DHT22;41176;44.032;20.900;2023-08-30T02:03:39;19.80;99.90
50544;DHT22;41176;44.032;20.900;2023-08-30T02:06:26;19.70;99.90
50544;DHT22;41176;44.032;20.900;2023-08-30T02:09:24;19.70;99.90
50544;DHT22;41176;44.032;20.900;2023-08-30T02:11:53;19.60;99.90
50544;DHT22;41176;44.032;20.900;2023-08-30T02:14:21;19.70;99.90
50544;DHT22;41176;44.032;20.900;2023-08-30T02:16:48;19.70;99.90
50544;DHT22;41176;44.032;20.900;2023-08-30T02:19:14;19.80;99.90
50544;DHT22;41176;44.032;20.900;2023-08-30T02:21:46;19.70;99.90
50544;DHT22;41176;44.032;20.900;2023-08-30T02:24:12;19.70;99.90
50544;DHT22;41176;44.032;20.900;2023-08-30T02:26:37;19.70;99.90
50544;DHT22;41176;44.032;20.900;2023-08-30T02:29:04;19.70;99.90
50544;DHT22;41176;44.032;20.900;2023-08-30T02:31:29;19.70;99.90
50544;DHT22;41176;44.032;20.900;2023-08-30T02:33:55;19.70;99.90
50544;DHT22;41176;44.032;20.900;2023-08-30T02:36:21;19.70;99.90
50544;DHT22;41176;44.032;20.900;2023-08-30T02:38:47;19.80;99.90
50544;DHT22;41176;44.032;20.900;2023-08-30T02:41:12;19.80;99.90
50544;DHT22;41176;44.032;20.900;2023-08-30T02:43:38;19.90;99.90
50544;DHT22;41176;44.032;20.900;2023-08-30T02:46:04;19.90;99.90
50544;DHT22;41176;44.032;20.900;2023-08-30T02:48:34;20.00;99.90
50544;DHT22;41176;44.032;20.900;2023-08-30T02:50:59;19.90;99.90
50544;DHT22;41176;44.032;20.900;2023-08-30T02:53:25;19.90;99.90
50544;DHT22;41176;44.032;20.900;2023-08-30T02:55:51;19.80;99.90
50544;DHT22;41176;44.032;20.900;2023-08-30T02:58:16;19.70;99.90
50544;DHT22;41176;44.032;20.900;2023-08-30T03:00:42;19.70;99.90
50544;DHT22;41176;44.032;20.900;2023-08-30T03:03:08;19.70;99.90
50544;DHT22;41176;44.032;20.900;2023-08-30T03:05:34;19.60;99.90
50544;DHT22;41176;44.032;20.900;2023-08-30T03:07:59;19.60;99.90
50544;DHT22;41176;44.032;20.900;2023-08-30T03:10:25;19.60;99.90
50544;DHT22;41176;44.032;20.900;2023-08-30T03:12:51;19.70;99.90
50544;DHT22;41176;44.032;20.900;2023-08-30T03:15:17;19.70;99.90
50544;DHT22;41176;44.032;20.900;2023-08-30T03:17:43;19.70;99.90
50544;DHT22;41176;44.032;20.900;2023-08-30T03:20:08;19.70;99.90
50544;DHT22;41176;44.032;20.900;2023-08-30T03:22:34;19.70;99.90
50544;DHT22;41176;44.032;20.900;2023-08-30T03:25:00;19.60;99.90
50544;DHT22;41176;44.032;20.900;2023-08-30T03:27:29;19.70;99.90
50544;DHT22;41176;44.032;20.900;2023-08-30T03:29:55;19.70;99.90
50544;DHT22;41176;44.032;20.900;2023-08-30T03:32:21;19.60;99.90
50544;DHT22;41176;44.032;20.900;2023-08-30T03:34:48;19.50;99.90
50544;DHT22;41176;44.032;20.900;2023-08-30T03:37:14;19.50;99.90
50544;DHT22;41176;44.032;20.900;2023-08-30T03:39:41;19.40;99.90
50544;DHT22;41176;44.032;20.900;2023-08-30T03:42:07;19.30;99.90
50544;DHT22;41176;44.032;20.900;2023-08-30T03:44:33;19.20;99.90
50544;DHT22;41176;44.032;20.900;2023-08-30T03:46:59;19.20;99.90
50544;DHT22;41176;44.032;20.900;2023-08-30T03:49:24;19.10;99.90
50544;DHT22;41176;44.032;20.900;2023-08-30T03:51:50;19.10;99.90
50544;DHT22;41176;44.032;20.900;2023-08-30T03:54:16;19.30;99.90
50544;DHT22;41176;44.032;20.900;2023-08-30T03:56:45;19.30;99.90
50544;DHT22;41176;44.032;20.900;2023-08-30T03:59:11;19.40;99.90
50544;DHT22;41176;44.032;20.900;2023-08-30T04:01:37;19.40;99.90
50544;DHT22;41176;44.032;20.900;2023-08-30T04:04:03;19.50;99.90
50544;DHT22;41176;44.032;20.900;2023-08-30T04:06:30;19.50;99.90
50544;DHT22;41176;44.032;20.900;2023-08-30T04:08:56;19.50;99.90
50544;DHT22;41176;44.032;20.900;2023-08-30T04:11:22;19.50;99.90
50544;DHT22;41176;44.032;20.900;2023-08-30T04:13:48;19.50;99.90
50544;DHT22;41176;44.032;20.900;2023-08-30T04:16:13;19.50;99.90
50544;DHT22;41176;44.032;20.900;2023-08-30T04:18:39;19.40;99.90
50544;DHT22;41176;44.032;20.900;2023-08-30T04:21:05;19.20;99.90
50544;DHT22;41176;44.032;20.900;2023-08-30T04:23:33;19.10;99.90
50544;DHT22;41176;44.032;20.900;2023-08-30T04:25:58;19.00;99.90
50544;DHT22;41176;44.032;20.900;2023-08-30T04:28:24;18.90;99.90
50544;DHT22;41176;44.032;20.900;2023-08-30T04:30:53;18.90;99.90
50544;DHT22;41176;44.032;20.900;2023-08-30T04:33:20;18.90;99.90
50544;DHT22;41176;44.032;20.900;2023-08-30T04:35:53;18.90;99.90
50544;DHT22;41176;44.032;20.900;2023-08-30T04:38:19;18.90;99.90
50544;DHT22;41176;44.032;20.900;2023-08-30T04:40:45;18.90;99.90
50544;DHT22;41176;44.032;20.900;2023-08-30T04:43:11;19.00;99.90
50544;DHT22;41176;44.032;20.900;2023-08-30T04:45:38;19.10;99.90
50544;DHT22;41176;44.032;20.900;2023-08-30T04:48:04;19.20;99.90
50544;DHT22;41176;44.032;20.900;2023-08-30T04:50:30;19.30;99.90
50544;DHT22;41176;44.032;20.900;2023-08-30T04:52:56;19.40;99.90
50544;DHT22;41176;44.032;20.900;2023-08-30T04:55:24;19.50;99.90
50544;DHT22;41176;44.032;20.900;2023-08-30T04:57:50;19.60;99.90
50544;DHT22;41176;44.032;20.900;2023-08-30T05:00:17;19.70;99.90
50544;DHT22;41176;44.032;20.900;2023-08-30T05:02:43;19.70;99.90
50544;DHT22;41176;44.032;20.900;2023-08-30T05:05:12;19.70;99.90
50544;DHT22;41176;44.032;20.900;2023-08-30T05:07:37;19.80;99.90
50544;DHT22;41176;44.032;20.900;2023-08-30T05:10:04;19.80;99.90
50544;DHT22;41176;44.032;20.900;2023-08-30T05:12:30;19.90;99.90
50544;DHT22;41176;44.032;20.900;2023-08-30T05:14:56;20.00;99.90
50544;DHT22;41176;44.032;20.900;2023-08-30T05:17:21;20.10;99.90
50544;DHT22;41176;44.032;20.900;2023-08-30T05:19:47;20.10;99.90
50544;DHT22;41176;44.032;20.900;2023-08-30T05:22:13;20.20;99.90
50544;DHT22;41176;44.032;20.900;2023-08-30T05:24:38;20.20;99.90
50544;DHT22;41176;44.032;20.900;2023-08-30T05:27:05;20.30;99.90
50544;DHT22;41176;44.032;20.900;2023-08-30T05:29:30;20.40;99.90
50544;DHT22;41176;44.032;20.900;2023-08-30T05:31:56;20.30;99.90
50544;DHT22;41176;44.032;20.900;2023-08-30T05:34:22;20.30;99.90
50544;DHT22;41176;44.032;20.900;2023-08-30T05:36:49;20.20;99.90
50544;DHT22;41176;44.032;20.900;2023-08-30T05:39:14;20.20;99.90
50544;DHT22;41176;44.032;20.900;2023-08-30T05:41:40;20.30;99.90
50544;DHT22;41176;44.032;20.900;2023-08-30T05:44:06;20.30;99.90
50544;DHT22;41176;44.032;20.900;2023-08-30T05:46:32;20.30;99.90
50544;DHT22;41176;44.032;20.900;2023-08-30T05:48:58;20.40;99.90
50544;DHT22;41176;44.032;20.900;2023-08-30T05:51:26;20.40;99.90
50544;DHT22;41176;44.032;20.900;2023-08-30T05:53:51;20.40;99.90
50544;DHT22;41176;44.032;20.900;2023-08-30T05:56:17;20.50;99.90
50544;DHT22;41176;44.032;20.900;2023-08-30T05:58:43;20.50;99.90
50544;DHT22;41176;44.032;20.900;2023-08-30T06:01:08;20.40;99.90
50544;DHT22;41176;44.032;20.900;2023-08-30T06:03:34;20.50;99.90
50544;DHT22;41176;44.032;20.900;2023-08-30T06:06:00;20.40;99.90
50544;DHT22;41176;44.032;20.900;2023-08-30T06:08:27;20.50;99.90
50544;DHT22;41176;44.032;20.900;2023-08-30T06:10:52;20.50;99.90
50544;DHT22;41176;44.032;20.900;2023-08-30T06:13:18;20.40;99.90
50544;DHT22;41176;44.032;20.900;2023-08-30T06:15:44;20.40;99.90
50544;DHT22;41176;44.032;20.900;2023-08-30T06:18:10;20.30;99.90
50544;DHT22;41176;44.032;20.900;2023-08-30T06:20:40;20.30;99.90
50544;DHT22;41176;44.032;20.900;2023-08-30T06:23:07;20.30;99.90
50544;DHT22;41176;44.032;20.900;2023-08-30T06:25:32;20.20;99.90
50544;DHT22;41176;44.032;20.900;2023-08-30T06:27:59;20.20;99.90
50544;DHT22;41176;44.032;20.900;2023-08-30T06:30:27;20.10;99.90
50544;DHT22;41176;44.032;20.900;2023-08-30T06:32:53;20.10;99.90
50544;DHT22;41176;44.032;20.900;2023-08-30T06:35:19;20.10;99.90
50544;DHT22;41176;44.032;20.900;2023-08-30T06:37:44;20.10;99.90
50544;DHT22;41176;44.032;20.900;2023-08-30T06:40:10;20.10;99.90
50544;DHT22;41176;44.032;20.900;2023-08-30T06:42:36;20.10;99.90
50544;DHT22;41176;44.032;20.900;2023-08-30T06:45:02;20.20;99.90
50544;DHT22;41176;44.032;20.900;2023-08-30T06:47:29;20.20;99.90
50544;DHT22;41176;44.032;20.900;2023-08-30T06:49:55;20.30;99.90
50544;DHT22;41176;44.032;20.900;2023-08-30T06:52:21;20.20;99.90
50544;DHT22;41176;44.032;20.900;2023-08-30T06:54:46;20.20;99.90
50544;DHT22;41176;44.032;20.900;2023-08-30T06:57:12;20.20;99.90
50544;DHT22;41176;44.032;20.900;2023-08-30T06:59:38;20.30;99.90
50544;DHT22;41176;44.032;20.900;2023-08-30T07:02:04;20.50;99.90
50544;DHT22;41176;44.032;20.900;2023-08-30T07:04:29;20.60;99.90
50544;DHT22;41176;44.032;20.900;2023-08-30T07:06:55;20.70;99.90
50544;DHT22;41176;44.032;20.900;2023-08-30T07:09:21;20.80;99.90
50544;DHT22;41176;44.032;20.900;2023-08-30T07:11:53;20.90;99.90
50544;DHT22;41176;44.032;20.900;2023-08-30T07:14:19;21.00;99.90
50544;DHT22;41176;44.032;20.900;2023-08-30T07:16:46;21.10;99.90
50544;DHT22;41176;44.032;20.900;2023-08-30T07:19:11;21.30;99.90
50544;DHT22;41176;44.032;20.900;2023-08-30T07:21:37;21.40;99.90
50544;DHT22;41176;44.032;20.900;2023-08-30T07:24:06;21.30;99.90
50544;DHT22;41176;44.032;20.900;2023-08-30T07:26:32;21.50;99.90
50544;DHT22;41176;44.032;20.900;2023-08-30T07:28:57;21.60;99.90
50544;DHT22;41176;44.032;20.900;2023-08-30T07:31:23;21.80;99.90
50544;DHT22;41176;44.032;20.900;2023-08-30T07:33:49;21.90;99.90
50544;DHT22;41176;44.032;20.900;2023-08-30T07:36:14;22.00;99.90
50544;DHT22;41176;44.032;20.900;2023-08-30T07:38:40;22.10;99.90
50544;DHT22;41176;44.032;20.900;2023-08-30T07:41:06;22.20;99.90
50544;DHT22;41176;44.032;20.900;2023-08-30T07:43:31;22.40;99.90
50544;DHT22;41176;44.032;20.900;2023-08-30T07:45:58;22.50;99.90
50544;DHT22;41176;44.032;20.900;2023-08-30T07:48:24;22.60;99.90
50544;DHT22;41176;44.032;20.900;2023-08-30T07:50:50;22.60;99.90
50544;DHT22;41176;44.032;20.900;2023-08-30T07:53:16;22.60;99.90
50544;DHT22;41176;44.032;20.900;2023-08-30T07:55:42;22.60;99.90
50544;DHT22;41176;44.032;20.900;2023-08-30T07:58:07;22.70;99.90
50544;DHT22;41176;44.032;20.900;2023-08-30T08:00:35;22.60;99.90
50544;DHT22;41176;44.032;20.900;2023-08-30T08:03:01;22.70;99.90
50544;DHT22;41176;44.032;20.900;2023-08-30T08:05:27;22.60;99.90
50544;DHT22;41176;44.032;20.900;2023-08-30T08:07:53;22.70;99.90
50544;DHT22;41176;44.032;20.900;2023-08-30T08:10:19;22.80;99.50
50544;DHT22;41176;44.032;20.900;2023-08-30T08:12:45;22.80;99.40
50544;DHT22;41176;44.032;20.900;2023-08-30T08:15:11;22.80;98.60
50544;DHT22;41176;44.032;20.900;2023-08-30T08:17:37;22.90;98.80
50544;DHT22;41176;44.032;20.900;2023-08-30T08:20:04;22.90;99.50
50544;DHT22;41176;44.032;20.900;2023-08-30T08:22:30;22.90;97.00
50544;DHT22;41176;44.032;20.900;2023-08-30T08:24:56;22.90;96.30
50544;DHT22;41176;44.032;20.900;2023-08-30T08:27:24;23.10;96.50
50544;DHT22;41176;44.032;20.900;2023-08-30T08:29:50;23.50;96.70
50544;DHT22;41176;44.032;20.900;2023-08-30T08:32:16;23.80;96.60
50544;DHT22;41176;44.032;20.900;2023-08-30T08:34:41;24.00;94.90
50544;DHT22;41176;44.032;20.900;2023-08-30T08:37:07;24.20;94.60
50544;DHT22;41176;44.032;20.900;2023-08-30T08:39:33;24.20;93.60
50544;DHT22;41176;44.032;20.900;2023-08-30T08:41:59;24.40;94.30
50544;DHT22;41176;44.032;20.900;2023-08-30T08:44:27;24.60;94.20
50544;DHT22;41176;44.032;20.900;2023-08-30T08:46:54;24.80;93.80
50544;DHT22;41176;44.032;20.900;2023-08-30T08:49:20;25.00;93.60
50544;DHT22;41176;44.032;20.900;2023-08-30T08:51:46;25.00;92.90
50544;DHT22;41176;44.032;20.900;2023-08-30T08:54:12;25.20;92.10
50544;DHT22;41176;44.032;20.900;2023-08-30T08:56:39;25.20;91.70
50544;DHT22;41176;44.032;20.900;2023-08-30T08:59:05;25.30;91.30
50544;DHT22;41176;44.032;20.900;2023-08-30T09:01:34;25.40;91.50
50544;DHT22;41176;44.032;20.900;2023-08-30T09:04:07;25.40;91.20
50544;DHT22;41176;44.032;20.900;2023-08-30T09:06:34;25.40;91.60
50544;DHT22;41176;44.032;20.900;2023-08-30T09:09:01;25.60;91.70
50544;DHT22;41176;44.032;20.900;2023-08-30T09:11:26;25.60;91.40
50544;DHT22;41176;44.032;20.900;2023-08-30T09:13:53;25.60;90.20
50544;DHT22;41176;44.032;20.900;2023-08-30T09:16:19;25.60;89.00
50544;DHT22;41176;44.032;20.900;2023-08-30T09:18:44;25.70;87.50
50544;DHT22;41176;44.032;20.900;2023-08-30T09:21:10;25.70;86.70
50544;DHT22;41176;44.032;20.900;2023-08-30T09:23:37;25.80;87.90
50544;DHT22;41176;44.032;20.900;2023-08-30T09:26:04;26.00;85.70
50544;DHT22;41176;44.032;20.900;2023-08-30T09:28:30;26.10;84.60
50544;DHT22;41176;44.032;20.900;2023-08-30T09:30:59;26.30;85.50
50544;DHT22;41176;44.032;20.900;2023-08-30T09:33:33;26.40;81.60
50544;DHT22;41176;44.032;20.900;2023-08-30T09:35:59;26.50;81.20
50544;DHT22;41176;44.032;20.900;2023-08-30T09:38:26;26.60;83.30
50544;DHT22;41176;44.032;20.900;2023-08-30T09:41:02;26.60;79.70
50544;DHT22;41176;44.032;20.900;2023-08-30T09:43:28;26.70;79.40
50544;DHT22;41176;44.032;20.900;2023-08-30T09:45:53;26.70;77.70
50544;DHT22;41176;44.032;20.900;2023-08-30T09:48:27;26.80;78.30
50544;DHT22;41176;44.032;20.900;2023-08-30T09:50:53;26.80;79.50
50544;DHT22;41176;44.032;20.900;2023-08-30T09:53:24;26.90;78.60
50544;DHT22;41176;44.032;20.900;2023-08-30T09:55:52;26.90;77.60
50544;DHT22;41176;44.032;20.900;2023-08-30T09:58:19;27.00;78.50
50544;DHT22;41176;44.032;20.900;2023-08-30T10:00:46;27.20;78.30
50544;DHT22;41176;44.032;20.900;2023-08-30T10:03:12;27.20;73.50
50544;DHT22;41176;44.032;20.900;2023-08-30T10:05:39;27.30;74.50
50544;DHT22;41176;44.032;20.900;2023-08-30T10:08:07;27.30;72.50
50544;DHT22;41176;44.032;20.900;2023-08-30T10:10:34;27.30;72.80
50544;DHT22;41176;44.032;20.900;2023-08-30T10:13:01;27.40;73.90
50544;DHT22;41176;44.032;20.900;2023-08-30T10:15:27;27.50;74.20
50544;DHT22;41176;44.032;20.900;2023-08-30T10:17:58;27.60;75.00
50544;DHT22;41176;44.032;20.900;2023-08-30T10:20:24;27.70;71.30
50544;DHT22;41176;44.032;20.900;2023-08-30T10:22:51;27.70;71.20
50544;DHT22;41176;44.032;20.900;2023-08-30T10:25:24;27.80;70.30
50544;DHT22;41176;44.032;20.900;2023-08-30T10:27:51;27.70;72.10
50544;DHT22;41176;44.032;20.900;2023-08-30T10:30:19;27.80;70.00
50544;DHT22;41176;44.032;20.900;2023-08-30T10:32:46;27.90;65.70
50544;DHT22;41176;44.032;20.900;2023-08-30T10:35:13;28.00;65.40
50544;DHT22;41176;44.032;20.900;2023-08-30T10:37:40;28.00;64.40
50544;DHT22;41176;44.032;20.900;2023-08-30T10:40:06;28.00;62.60
50544;DHT22;41176;44.032;20.900;2023-08-30T10:42:32;28.10;64.90
50544;DHT22;41176;44.032;20.900;2023-08-30T10:45:00;28.20;64.00
50544;DHT22;41176;44.032;20.900;2023-08-30T10:47:33;28.30;65.60
50544;DHT22;41176;44.032;20.900;2023-08-30T10:52:32;28.50;59.90
50544;DHT22;41176;44.032;20.900;2023-08-30T10:55:24;28.70;59.00
50544;DHT22;41176;44.032;20.900;2023-08-30T10:58:03;28.70;58.60
50544;DHT22;41176;44.032;20.900;2023-08-30T11:00:32;28.80;59.50
50544;DHT22;41176;44.032;20.900;2023-08-30T11:02:58;28.90;58.40
50544;DHT22;41176;44.032;20.900;2023-08-30T11:05:26;29.00;60.80
50544;DHT22;41176;44.032;20.900;2023-08-30T11:07:53;29.20;58.80
50544;DHT22;41176;44.032;20.900;2023-08-30T11:10:20;28.90;57.80
50544;DHT22;41176;44.032;20.900;2023-08-30T11:12:46;28.90;58.40
50544;DHT22;41176;44.032;20.900;2023-08-30T11:15:13;28.80;59.50
50544;DHT22;41176;44.032;20.900;2023-08-30T11:17:45;29.00;61.60
50544;DHT22;41176;44.032;20.900;2023-08-30T11:20:13;29.20;59.20
50544;DHT22;41176;44.032;20.900;2023-08-30T11:22:44;29.30;59.00
50544;DHT22;41176;44.032;20.900;2023-08-30T11:25:11;29.40;59.70
50544;DHT22;41176;44.032;20.900;2023-08-30T11:27:40;29.40;58.80
50544;DHT22;41176;44.032;20.900;2023-08-30T11:30:07;29.40;57.00
50544;DHT22;41176;44.032;20.900;2023-08-30T11:32:40;29.50;55.50
50544;DHT22;41176;44.032;20.900;2023-08-30T11:35:11;29.50;56.30
50544;DHT22;41176;44.032;20.900;2023-08-30T11:37:36;29.70;58.00
50544;DHT22;41176;44.032;20.900;2023-08-30T11:40:03;29.80;55.90
50544;DHT22;41176;44.032;20.900;2023-08-30T11:42:30;29.80;56.60
50544;DHT22;41176;44.032;20.900;2023-08-30T11:44:58;29.90;57.50
50544;DHT22;41176;44.032;20.900;2023-08-30T11:47:25;29.90;56.10
50544;DHT22;41176;44.032;20.900;2023-08-30T11:49:57;29.70;57.70
50544;DHT22;41176;44.032;20.900;2023-08-30T11:52:25;29.90;54.90
50544;DHT22;41176;44.032;20.900;2023-08-30T11:54:51;29.80;55.50
50544;DHT22;41176;44.032;20.900;2023-08-30T11:57:17;29.80;54.90
50544;DHT22;41176;44.032;20.900;2023-08-30T11:59:43;29.90;54.00
50544;DHT22;41176;44.032;20.900;2023-08-30T12:02:12;30.10;55.90
50544;DHT22;41176;44.032;20.900;2023-08-30T12:04:43;30.10;55.40
50544;DHT22;41176;44.032;20.900;2023-08-30T12:07:09;30.00;54.20
50544;DHT22;41176;44.032;20.900;2023-08-30T12:09:36;29.90;55.10
50544;DHT22;41176;44.032;20.900;2023-08-30T12:12:11;29.90;55.30
50544;DHT22;41176;44.032;20.900;2023-08-30T12:14:38;30.00;55.20
50544;DHT22;41176;44.032;20.900;2023-08-30T12:17:04;30.20;56.20
50544;DHT22;41176;44.032;20.900;2023-08-30T12:19:31;30.20;54.40
50544;DHT22;41176;44.032;20.900;2023-08-30T12:22:06;30.20;54.30
50544;DHT22;41176;44.032;20.900;2023-08-30T12:24:45;30.20;55.70
50544;DHT22;41176;44.032;20.900;2023-08-30T12:27:14;30.30;53.70
50544;DHT22;41176;44.032;20.900;2023-08-30T12:29:43;30.00;55.00
50544;DHT22;41176;44.032;20.900;2023-08-30T12:32:08;30.10;54.80
50544;DHT22;41176;44.032;20.900;2023-08-30T12:34:34;29.90;55.30
50544;DHT22;41176;44.032;20.900;2023-08-30T12:37:00;30.00;56.00
50544;DHT22;41176;44.032;20.900;2023-08-30T12:39:27;30.10;55.40
50544;DHT22;41176;44.032;20.900;2023-08-30T12:41:53;30.40;55.20
50544;DHT22;41176;44.032;20.900;2023-08-30T12:44:19;30.50;54.40
50544;DHT22;41176;44.032;20.900;2023-08-30T12:46:51;30.40;53.70
50544;DHT22;41176;44.032;20.900;2023-08-30T12:49:16;30.50;54.60
50544;DHT22;41176;44.032;20.900;2023-08-30T12:51:42;30.60;54.90
50544;DHT22;41176;44.032;20.900;2023-08-30T12:54:08;30.70;55.10
50544;DHT22;41176;44.032;20.900;2023-08-30T12:56:33;30.80;53.40
50544;DHT22;41176;44.032;20.900;2023-08-30T12:59:00;30.80;54.30
50544;DHT22;41176;44.032;20.900;2023-08-30T13:01:25;31.00;54.40
50544;DHT22;41176;44.032;20.900;2023-08-30T13:03:51;31.10;54.20
50544;DHT22;41176;44.032;20.900;2023-08-30T13:06:17;30.90;53.60
50544;DHT22;41176;44.032;20.900;2023-08-30T13:08:42;30.70;53.20
50544;DHT22;41176;44.032;20.900;2023-08-30T13:11:08;30.50;53.20
50544;DHT22;41176;44.032;20.900;2023-08-30T13:13:34;30.50;54.70
50544;DHT22;41176;44.032;20.900;2023-08-30T13:15:59;30.50;55.60
50544;DHT22;41176;44.032;20.900;2023-08-30T13:18:25;30.50;55.10
50544;DHT22;41176;44.032;20.900;2023-08-30T13:20:54;30.40;53.80
50544;DHT22;41176;44.032;20.900;2023-08-30T13:23:20;30.30;54.50
50544;DHT22;41176;44.032;20.900;2023-08-30T13:25:47;30.10;54.90
50544;DHT22;41176;44.032;20.900;2023-08-30T13:28:14;30.00;53.90
50544;DHT22;41176;44.032;20.900;2023-08-30T13:30:46;30.00;54.50
50544;DHT22;41176;44.032;20.900;2023-08-30T13:33:12;30.00;54.30
50544;DHT22;41176;44.032;20.900;2023-08-30T13:35:41;30.00;53.50
50544;DHT22;41176;44.032;20.900;2023-08-30T13:38:07;29.90;53.70
50544;DHT22;41176;44.032;20.900;2023-08-30T13:40:32;29.90;54.80
50544;DHT22;41176;44.032;20.900;2023-08-30T13:42:58;29.90;53.40
50544;DHT22;41176;44.032;20.900;2023-08-30T13:45:24;30.00;54.00
50544;DHT22;41176;44.032;20.900;2023-08-30T13:47:49;30.10;53.10
50544;DHT22;41176;44.032;20.900;2023-08-30T13:50:18;30.00;53.60
50544;DHT22;41176;44.032;20.900;2023-08-30T13:52:44;29.90;53.80
50544;DHT22;41176;44.032;20.900;2023-08-30T13:55:10;29.90;55.10
50544;DHT22;41176;44.032;20.900;2023-08-30T13:57:35;29.90;54.80
50544;DHT22;41176;44.032;20.900;2023-08-30T14:00:01;29.90;52.70
50544;DHT22;41176;44.032;20.900;2023-08-30T14:02:31;29.80;53.60
50544;DHT22;41176;44.032;20.900;2023-08-30T14:04:57;29.60;53.90
50544;DHT22;41176;44.032;20.900;2023-08-30T14:07:23;29.60;55.20
50544;DHT22;41176;44.032;20.900;2023-08-30T14:09:49;29.60;56.00
50544;DHT22;41176;44.032;20.900;2023-08-30T14:12:14;29.70;56.00
50544;DHT22;41176;44.032;20.900;2023-08-30T14:14:40;29.60;56.60
50544;DHT22;41176;44.032;20.900;2023-08-30T14:17:06;29.60;55.10
50544;DHT22;41176;44.032;20.900;2023-08-30T14:19:34;29.50;54.80
50544;DHT22;41176;44.032;20.900;2023-08-30T14:22:01;29.30;55.00
50544;DHT22;41176;44.032;20.900;2023-08-30T14:24:29;29.30;56.80
50544;DHT22;41176;44.032;20.900;2023-08-30T14:26:54;29.30;56.70
50544;DHT22;41176;44.032;20.900;2023-08-30T14:29:21;29.30;56.40
50544;DHT22;41176;44.032;20.900;2023-08-30T14:31:49;29.40;57.60
50544;DHT22;41176;44.032;20.900;2023-08-30T14:34:15;29.50;56.60
50544;DHT22;41176;44.032;20.900;2023-08-30T14:36:41;30.10;54.30
50544;DHT22;41176;44.032;20.900;2023-08-30T14:39:08;31.00;54.30
50544;DHT22;41176;44.032;20.900;2023-08-30T14:41:35;31.50;52.30
50544;DHT22;41176;44.032;20.900;2023-08-30T14:44:02;31.70;52.70
50544;DHT22;41176;44.032;20.900;2023-08-30T14:46:33;31.60;52.40
50544;DHT22;41176;44.032;20.900;2023-08-30T14:48:59;31.50;50.50
50544;DHT22;41176;44.032;20.900;2023-08-30T14:51:24;31.20;50.20
50544;DHT22;41176;44.032;20.900;2023-08-30T14:53:50;31.10;50.70
50544;DHT22;41176;44.032;20.900;2023-08-30T14:56:16;31.20;51.10
50544;DHT22;41176;44.032;20.900;2023-08-30T14:58:44;31.50;50.40
50544;DHT22;41176;44.032;20.900;2023-08-30T15:01:14;31.50;49.60
50544;DHT22;41176;44.032;20.900;2023-08-30T15:03:41;31.30;50.30
50544;DHT22;41176;44.032;20.900;2023-08-30T15:06:06;31.00;49.10
50544;DHT22;41176;44.032;20.900;2023-08-30T15:08:32;30.70;49.90
50544;DHT22;41176;44.032;20.900;2023-08-30T15:10:58;30.70;51.50
50544;DHT22;41176;44.032;20.900;2023-08-30T15:13:24;30.60;50.00
50544;DHT22;41176;44.032;20.900;2023-08-30T15:15:49;30.50;51.60
50544;DHT22;41176;44.032;20.900;2023-08-30T15:18:15;30.60;52.00
50544;DHT22;41176;44.032;20.900;2023-08-30T15:20:41;30.70;52.20